Portada
METAR-TAF:

METAR-TAF

Aeroports :

Belmar-Farmingdale, Nova Jersey, Estats Units d'Amèrica

latitud: 40-11N, longitud: 074-08W, altitud: 48 m

Observació

L'informe es va fer fa 49 minuts, a les 22:56 UTC
Vent 11 kt del Nord/Nord-Oest
Temperatura 9°C
Humitat 93%
Pressió 1004 hPa
Visibilitat: 16.1 km
Cel cobert a una alçada de 5500 ft

METAR: KBLM 152256Z AUTO 33011KT 10SM OVC055 09/08 A2966 RMK AO2 SLP045 T00940078 PNO $

Hora: 19:45 (23:45 UTC)


TAF: manca

Observacions i pronòstics meteorològics de més de 4000 aeroports (METAR i TAF).

Les estacions disponibles són els punts grocs i vermells al mapa.

Posi el ratolí al punt desitjat per veure el nom de l'estació.

Feu clic per veure les observacions i els pronòstics meteorològics.

Per canviar el mapa: feu clic els botons verds amb una creu de color negre per apropar; al botó verd amb un guió per allunyar la imatge; o en les fletxes verdes per a mapes adjacents.


METAR-TAF: